sensor_id;sensor_type;location;lat;lon;timestamp;P1;P2;P0
13030;PMS7003;6582;54.644;9.760;2023-08-20T00:00:02;69.5;57.0;
13030;PMS7003;6582;54.644;9.760;2023-08-20T00:05:02;69.4;56.8;
13030;PMS7003;6582;54.644;9.760;2023-08-20T00:10:12;64.6;53.0;
13030;PMS7003;6582;54.644;9.760;2023-08-20T00:15:02;64.2;52.7;
13030;PMS7003;6582;54.644;9.760;2023-08-20T00:20:08;63.6;52.5;
13030;PMS7003;6582;54.644;9.760;2023-08-20T00:25:02;63.5;52.4;
13030;PMS7003;6582;54.644;9.760;2023-08-20T00:30:02;63.6;52.2;
13030;PMS7003;6582;54.644;9.760;2023-08-20T00:35:02;62.9;51.8;
13030;PMS7003;6582;54.644;9.760;2023-08-20T00:40:07;62.8;51.7;
13030;PMS7003;6582;54.644;9.760;2023-08-20T00:45:02;62.6;51.6;
13030;PMS7003;6582;54.644;9.760;2023-08-20T00:50:02;62.4;51.3;
13030;PMS7003;6582;54.644;9.760;2023-08-20T00:55:12;62.2;51.0;
13030;PMS7003;6582;54.644;9.760;2023-08-20T01:00:02;63.5;51.9;
13030;PMS7003;6582;54.644;9.760;2023-08-20T01:05:02;64.5;52.5;
13030;PMS7003;6582;54.644;9.760;2023-08-20T01:10:10;65.6;53.6;
13030;PMS7003;6582;54.644;9.760;2023-08-20T01:15:07;65.6;54.0;
13030;PMS7003;6582;54.644;9.760;2023-08-20T01:20:02;66.0;54.0;
13030;PMS7003;6582;54.644;9.760;2023-08-20T01:40:01;78.6;64.6;
13030;PMS7003;6582;54.644;9.760;2023-08-20T01:45:01;72.4;59.1;
13030;PMS7003;6582;54.644;9.760;2023-08-20T01:50:07;69.2;56.5;
13030;PMS7003;6582;54.644;9.760;2023-08-20T01:55:01;68.6;56.1;
13030;PMS7003;6582;54.644;9.760;2023-08-20T02:00:06;67.6;55.3;
13030;PMS7003;6582;54.644;9.760;2023-08-20T02:05:01;64.6;52.8;
13030;PMS7003;6582;54.644;9.760;2023-08-20T02:10:01;67.3;55.4;
13030;PMS7003;6582;54.644;9.760;2023-08-20T02:15:01;67.1;55.2;
13030;PMS7003;6582;54.644;9.760;2023-08-20T02:20:02;66.7;54.8;
13030;PMS7003;6582;54.644;9.760;2023-08-20T02:25:02;68.8;56.7;
13030;PMS7003;6582;54.644;9.760;2023-08-20T02:30:01;68.6;56.5;
13030;PMS7003;6582;54.644;9.760;2023-08-20T02:35:01;65.0;53.2;
13030;PMS7003;6582;54.644;9.760;2023-08-20T02:40:02;65.7;53.9;
13030;PMS7003;6582;54.644;9.760;2023-08-20T02:45:11;64.8;53.3;
13030;PMS7003;6582;54.644;9.760;2023-08-20T02:50:01;63.0;51.6;
13030;PMS7003;6582;54.644;9.760;2023-08-20T02:55:01;62.9;51.4;
13030;PMS7003;6582;54.644;9.760;2023-08-20T03:00:07;63.0;51.6;
13030;PMS7003;6582;54.644;9.760;2023-08-20T03:10:06;63.3;51.4;
13030;PMS7003;6582;54.644;9.760;2023-08-20T03:15:03;62.5;50.9;
13030;PMS7003;6582;54.644;9.760;2023-08-20T03:40:02;62.0;50.8;
13030;PMS7003;6582;54.644;9.760;2023-08-20T03:45:07;63.8;51.9;
13030;PMS7003;6582;54.644;9.760;2023-08-20T03:50:01;63.4;51.9;
13030;PMS7003;6582;54.644;9.760;2023-08-20T04:00:02;63.1;51.6;
13030;PMS7003;6582;54.644;9.760;2023-08-20T04:05:02;63.2;51.6;
13030;PMS7003;6582;54.644;9.760;2023-08-20T04:10:02;62.4;51.2;
13030;PMS7003;6582;54.644;9.760;2023-08-20T04:15:02;62.6;51.1;
13030;PMS7003;6582;54.644;9.760;2023-08-20T04:20:07;63.9;51.5;
13030;PMS7003;6582;54.644;9.760;2023-08-20T04:25:07;64.4;51.8;
13030;PMS7003;6582;54.644;9.760;2023-08-20T04:30:02;64.8;51.8;
13030;PMS7003;6582;54.644;9.760;2023-08-20T04:35:01;65.0;51.9;
13030;PMS7003;6582;54.644;9.760;2023-08-20T04:45:08;64.2;51.7;
13030;PMS7003;6582;54.644;9.760;2023-08-20T04:50:12;64.1;51.9;
13030;PMS7003;6582;54.644;9.760;2023-08-20T04:55:02;64.0;52.1;
13030;PMS7003;6582;54.644;9.760;2023-08-20T05:00:02;64.4;52.6;
13030;PMS7003;6582;54.644;9.760;2023-08-20T05:05:06;68.1;56.0;
13030;PMS7003;6582;54.644;9.760;2023-08-20T05:10:02;67.6;55.8;
13030;PMS7003;6582;54.644;9.760;2023-08-20T05:15:11;67.3;55.6;
13030;PMS7003;6582;54.644;9.760;2023-08-20T05:20:01;66.9;55.4;
13030;PMS7003;6582;54.644;9.760;2023-08-20T05:25:01;66.3;54.8;
13030;PMS7003;6582;54.644;9.760;2023-08-20T05:30:02;62.2;51.2;
13030;PMS7003;6582;54.644;9.760;2023-08-20T05:35:02;61.8;50.8;
13030;PMS7003;6582;54.644;9.760;2023-08-20T05:40:02;61.7;50.6;
13030;PMS7003;6582;54.644;9.760;2023-08-20T05:45:02;61.8;50.6;
13030;PMS7003;6582;54.644;9.760;2023-08-20T05:50:01;61.7;50.4;
13030;PMS7003;6582;54.644;9.760;2023-08-20T05:55:05;61.8;50.6;
13030;PMS7003;6582;54.644;9.760;2023-08-20T06:00:12;62.1;50.8;
13030;PMS7003;6582;54.644;9.760;2023-08-20T06:05:02;62.0;50.8;
13030;PMS7003;6582;54.644;9.760;2023-08-20T06:15:02;62.3;51.2;
13030;PMS7003;6582;54.644;9.760;2023-08-20T06:20:03;62.4;51.1;
13030;PMS7003;6582;54.644;9.760;2023-08-20T06:25:01;62.7;51.2;
13030;PMS7003;6582;54.644;9.760;2023-08-20T06:30:02;62.6;51.0;
13030;PMS7003;6582;54.644;9.760;2023-08-20T06:35:01;62.7;51.1;
13030;PMS7003;6582;54.644;9.760;2023-08-20T06:40:07;62.8;51.0;
13030;PMS7003;6582;54.644;9.760;2023-08-20T06:45:07;62.6;50.9;
13030;PMS7003;6582;54.644;9.760;2023-08-20T07:10:02;59.8;49.6;
13030;PMS7003;6582;54.644;9.760;2023-08-20T07:15:02;60.4;49.3;
13030;PMS7003;6582;54.644;9.760;2023-08-20T07:25:02;60.7;49.5;
13030;PMS7003;6582;54.644;9.760;2023-08-20T07:35:02;60.8;49.5;
13030;PMS7003;6582;54.644;9.760;2023-08-20T07:40:01;61.0;49.8;
13030;PMS7003;6582;54.644;9.760;2023-08-20T07:45:01;65.0;53.2;
13030;PMS7003;6582;54.644;9.760;2023-08-20T07:55:02;64.7;53.2;
13030;PMS7003;6582;54.644;9.760;2023-08-20T08:00:02;64.3;53.1;
13030;PMS7003;6582;54.644;9.760;2023-08-20T08:10:02;64.1;52.9;
13030;PMS7003;6582;54.644;9.760;2023-08-20T08:15:02;60.3;49.4;
13030;PMS7003;6582;54.644;9.760;2023-08-20T08:20:02;60.1;48.8;
13030;PMS7003;6582;54.644;9.760;2023-08-20T08:25:02;59.5;48.6;
13030;PMS7003;6582;54.644;9.760;2023-08-20T08:30:05;60.8;49.8;
13030;PMS7003;6582;54.644;9.760;2023-08-20T08:35:01;59.8;49.2;
13030;PMS7003;6582;54.644;9.760;2023-08-20T08:40:02;59.1;49.0;
13030;PMS7003;6582;54.644;9.760;2023-08-20T08:45:02;58.9;49.1;
13030;PMS7003;6582;54.644;9.760;2023-08-20T08:55:03;58.7;48.9;
13030;PMS7003;6582;54.644;9.760;2023-08-20T09:00:02;56.6;47.2;
13030;PMS7003;6582;54.644;9.760;2023-08-20T09:05:02;55.9;46.7;
13030;PMS7003;6582;54.644;9.760;2023-08-20T09:10:02;55.5;46.2;
13030;PMS7003;6582;54.644;9.760;2023-08-20T09:15:01;55.1;46.1;
13030;PMS7003;6582;54.644;9.760;2023-08-20T09:20:02;54.6;45.6;
13030;PMS7003;6582;54.644;9.760;2023-08-20T09:30:06;54.0;45.2;
13030;PMS7003;6582;54.644;9.760;2023-08-20T09:35:01;54.2;45.3;
13030;PMS7003;6582;54.644;9.760;2023-08-20T09:40:02;53.8;45.2;
13030;PMS7003;6582;54.644;9.760;2023-08-20T09:45:07;53.0;44.7;
13030;PMS7003;6582;54.644;9.760;2023-08-20T09:50:02;53.1;44.7;
13030;PMS7003;6582;54.644;9.760;2023-08-20T10:00:03;53.0;44.6;
13030;PMS7003;6582;54.644;9.760;2023-08-20T10:10:03;53.6;45.0;
13030;PMS7003;6582;54.644;9.760;2023-08-20T10:15:02;55.3;46.1;
13030;PMS7003;6582;54.644;9.760;2023-08-20T10:25:03;56.2;46.7;
13030;PMS7003;6582;54.644;9.760;2023-08-20T10:30:02;57.4;47.7;
13030;PMS7003;6582;54.644;9.760;2023-08-20T10:35:01;58.8;48.7;
13030;PMS7003;6582;54.644;9.760;2023-08-20T10:40:01;59.6;49.4;
13030;PMS7003;6582;54.644;9.760;2023-08-20T10:45:04;59.2;49.1;
13030;PMS7003;6582;54.644;9.760;2023-08-20T10:50:02;59.8;49.6;
13030;PMS7003;6582;54.644;9.760;2023-08-20T10:55:03;60.3;50.0;
13030;PMS7003;6582;54.644;9.760;2023-08-20T11:00:06;60.6;50.1;
13030;PMS7003;6582;54.644;9.760;2023-08-20T11:05:02;60.7;50.2;
13030;PMS7003;6582;54.644;9.760;2023-08-20T11:10:01;64.4;53.4;
13030;PMS7003;6582;54.644;9.760;2023-08-20T11:15:07;63.9;53.1;
13030;PMS7003;6582;54.644;9.760;2023-08-20T11:25:02;64.2;53.4;
13030;PMS7003;6582;54.644;9.760;2023-08-20T11:30:03;64.3;53.3;
13030;PMS7003;6582;54.644;9.760;2023-08-20T11:35:02;64.7;53.6;
13030;PMS7003;6582;54.644;9.760;2023-08-20T11:40:01;61.6;51.0;
13030;PMS7003;6582;54.644;9.760;2023-08-20T11:45:02;62.3;51.5;
13030;PMS7003;6582;54.644;9.760;2023-08-20T11:50:02;62.2;51.2;
13030;PMS7003;6582;54.644;9.760;2023-08-20T12:00:02;62.4;51.4;
13030;PMS7003;6582;54.644;9.760;2023-08-20T12:05:01;62.0;51.1;
13030;PMS7003;6582;54.644;9.760;2023-08-20T12:30:02;60.0;49.8;
13030;PMS7003;6582;54.644;9.760;2023-08-20T12:35:01;61.5;50.8;
13030;PMS7003;6582;54.644;9.760;2023-08-20T12:45:02;61.8;50.8;
13030;PMS7003;6582;54.644;9.760;2023-08-20T12:50:02;60.8;49.8;
13030;PMS7003;6582;54.644;9.760;2023-08-20T12:55:02;61.0;50.0;
13030;PMS7003;6582;54.644;9.760;2023-08-20T13:00:02;60.6;49.7;
13030;PMS7003;6582;54.644;9.760;2023-08-20T13:05:02;63.3;52.2;
13030;PMS7003;6582;54.644;9.760;2023-08-20T13:15:07;64.3;53.1;
13030;PMS7003;6582;54.644;9.760;2023-08-20T13:20:01;64.0;52.9;
13030;PMS7003;6582;54.644;9.760;2023-08-20T13:25:01;64.3;53.2;
13030;PMS7003;6582;54.644;9.760;2023-08-20T13:30:01;62.9;52.3;
13030;PMS7003;6582;54.644;9.760;2023-08-20T13:35:02;66.2;55.5;
13030;PMS7003;6582;54.644;9.760;2023-08-20T13:40:07;67.7;57.3;
13030;PMS7003;6582;54.644;9.760;2023-08-20T13:45:02;68.9;58.8;
13030;PMS7003;6582;54.644;9.760;2023-08-20T13:50:02;71.0;61.1;
13030;PMS7003;6582;54.644;9.760;2023-08-20T13:55:02;70.6;60.5;
13030;PMS7003;6582;54.644;9.760;2023-08-20T14:00:01;67.8;58.0;
13030;PMS7003;6582;54.644;9.760;2023-08-20T14:05:02;68.0;58.4;
13030;PMS7003;6582;54.644;9.760;2023-08-20T14:10:02;68.2;58.5;
13030;PMS7003;6582;54.644;9.760;2023-08-20T14:15:01;67.3;58.0;
13030;PMS7003;6582;54.644;9.760;2023-08-20T14:20:01;64.6;61.6;
13030;PMS7003;6582;54.644;9.760;2023-08-20T14:25:01;65.6;63.1;
13030;PMS7003;6582;54.644;9.760;2023-08-20T14:30:01;57.3;109.9;
13030;PMS7003;6582;54.644;9.760;2023-08-20T14:35:06;57.7;110.3;
13030;PMS7003;6582;54.644;9.760;2023-08-20T14:40:01;57.6;110.0;
13030;PMS7003;6582;54.644;9.760;2023-08-20T14:45:01;60.1;106.3;
13030;PMS7003;6582;54.644;9.760;2023-08-20T14:50:07;59.3;105.2;
13030;PMS7003;6582;54.644;9.760;2023-08-20T14:55:01;67.4;58.0;
13030;PMS7003;6582;54.644;9.760;2023-08-20T15:00:06;65.9;56.3;
13030;PMS7003;6582;54.644;9.760;2023-08-20T15:05:02;66.4;57.0;
13030;PMS7003;6582;54.644;9.760;2023-08-20T15:10:07;66.8;57.5;
13030;PMS7003;6582;54.644;9.760;2023-08-20T15:15:02;66.9;57.7;
13030;PMS7003;6582;54.644;9.760;2023-08-20T15:20:04;66.8;57.6;
13030;PMS7003;6582;54.644;9.760;2023-08-20T15:25:01;68.1;59.2;
13030;PMS7003;6582;54.644;9.760;2023-08-20T15:30:02;67.4;58.2;
13030;PMS7003;6582;54.644;9.760;2023-08-20T15:35:01;67.7;58.6;
13030;PMS7003;6582;54.644;9.760;2023-08-20T15:40:01;68.0;59.2;
13030;PMS7003;6582;54.644;9.760;2023-08-20T15:45:07;69.2;59.7;
13030;PMS7003;6582;54.644;9.760;2023-08-20T15:50:01;69.8;60.5;
13030;PMS7003;6582;54.644;9.760;2023-08-20T15:55:01;70.1;60.9;
13030;PMS7003;6582;54.644;9.760;2023-08-20T16:00:02;70.0;60.7;
13030;PMS7003;6582;54.644;9.760;2023-08-20T16:10:01;69.0;60.3;
13030;PMS7003;6582;54.644;9.760;2023-08-20T16:15:01;71.0;61.6;
13030;PMS7003;6582;54.644;9.760;2023-08-20T16:20:06;71.5;62.2;
13030;PMS7003;6582;54.644;9.760;2023-08-20T16:25:01;72.0;63.1;
13030;PMS7003;6582;54.644;9.760;2023-08-20T16:30:08;72.0;62.9;
13030;PMS7003;6582;54.644;9.760;2023-08-20T16:35:01;72.3;63.3;
13030;PMS7003;6582;54.644;9.760;2023-08-20T16:40:01;70.1;62.0;
13030;PMS7003;6582;54.644;9.760;2023-08-20T16:45:01;69.8;61.4;
13030;PMS7003;6582;54.644;9.760;2023-08-20T16:55:01;68.9;60.5;
13030;PMS7003;6582;54.644;9.760;2023-08-20T17:00:01;68.6;60.2;
13030;PMS7003;6582;54.644;9.760;2023-08-20T17:05:01;68.4;59.8;
13030;PMS7003;6582;54.644;9.760;2023-08-20T17:15:08;67.4;58.3;
13030;PMS7003;6582;54.644;9.760;2023-08-20T17:20:03;67.9;58.8;
13030;PMS7003;6582;54.644;9.760;2023-08-20T17:25:01;66.5;56.9;
13030;PMS7003;6582;54.644;9.760;2023-08-20T17:30:03;65.1;54.9;
13030;PMS7003;6582;54.644;9.760;2023-08-20T17:35:06;64.2;53.4;
13030;PMS7003;6582;54.644;9.760;2023-08-20T17:40:02;63.2;52.4;
13030;PMS7003;6582;54.644;9.760;2023-08-20T17:45:06;62.4;51.6;
13030;PMS7003;6582;54.644;9.760;2023-08-20T17:50:02;62.1;51.4;
13030;PMS7003;6582;54.644;9.760;2023-08-20T17:55:05;61.9;51.1;
13030;PMS7003;6582;54.644;9.760;2023-08-20T18:00:06;61.5;50.9;
13030;PMS7003;6582;54.644;9.760;2023-08-20T18:05:02;61.9;51.2;
13030;PMS7003;6582;54.644;9.760;2023-08-20T18:10:01;61.2;50.6;
13030;PMS7003;6582;54.644;9.760;2023-08-20T18:15:01;61.4;50.6;
13030;PMS7003;6582;54.644;9.760;2023-08-20T18:20:01;61.7;50.8;
13030;PMS7003;6582;54.644;9.760;2023-08-20T18:25:06;61.3;50.4;
13030;PMS7003;6582;54.644;9.760;2023-08-20T18:50:02;61.4;50.2;
13030;PMS7003;6582;54.644;9.760;2023-08-20T18:55:01;70.8;58.2;
13030;PMS7003;6582;54.644;9.760;2023-08-20T19:00:02;67.1;55.3;
13030;PMS7003;6582;54.644;9.760;2023-08-20T19:05:01;65.5;54.0;
13030;PMS7003;6582;54.644;9.760;2023-08-20T19:10:07;68.2;56.4;
13030;PMS7003;6582;54.644;9.760;2023-08-20T19:15:01;66.7;55.4;
13030;PMS7003;6582;54.644;9.760;2023-08-20T19:20:02;61.7;51.2;
13030;PMS7003;6582;54.644;9.760;2023-08-20T19:25:02;61.1;50.8;
13030;PMS7003;6582;54.644;9.760;2023-08-20T19:30:03;60.2;50.2;
13030;PMS7003;6582;54.644;9.760;2023-08-20T19:35:01;55.0;45.8;
13030;PMS7003;6582;54.644;9.760;2023-08-20T19:40:02;54.1;45.2;
13030;PMS7003;6582;54.644;9.760;2023-08-20T19:45:02;53.6;44.8;
13030;PMS7003;6582;54.644;9.760;2023-08-20T19:50:02;52.4;43.9;
13030;PMS7003;6582;54.644;9.760;2023-08-20T19:55:01;51.5;43.3;
13030;PMS7003;6582;54.644;9.760;2023-08-20T20:00:03;52.2;44.0;
13030;PMS7003;6582;54.644;9.760;2023-08-20T20:05:01;53.8;45.1;
13030;PMS7003;6582;54.644;9.760;2023-08-20T20:10:03;54.7;45.8;
13030;PMS7003;6582;54.644;9.760;2023-08-20T20:15:02;55.6;46.5;
13030;PMS7003;6582;54.644;9.760;2023-08-20T20:25:01;54.0;45.3;
13030;PMS7003;6582;54.644;9.760;2023-08-20T20:30:02;53.0;44.6;
13030;PMS7003;6582;54.644;9.760;2023-08-20T20:35:02;51.9;44.0;
13030;PMS7003;6582;54.644;9.760;2023-08-20T20:40:03;50.7;43.2;
13030;PMS7003;6582;54.644;9.760;2023-08-20T20:45:02;49.4;42.3;
13030;PMS7003;6582;54.644;9.760;2023-08-20T20:50:01;50.3;43.0;
13030;PMS7003;6582;54.644;9.760;2023-08-20T20:55:01;49.6;42.4;
13030;PMS7003;6582;54.644;9.760;2023-08-20T21:00:02;49.2;42.2;
13030;PMS7003;6582;54.644;9.760;2023-08-20T21:05:03;50.5;43.1;
13030;PMS7003;6582;54.644;9.760;2023-08-20T21:10:02;51.3;43.8;
13030;PMS7003;6582;54.644;9.760;2023-08-20T21:15:01;50.8;43.2;
13030;PMS7003;6582;54.644;9.760;2023-08-20T21:20:02;51.5;43.7;
13030;PMS7003;6582;54.644;9.760;2023-08-20T21:25:01;51.4;43.4;
13030;PMS7003;6582;54.644;9.760;2023-08-20T21:30:07;50.6;42.8;
13030;PMS7003;6582;54.644;9.760;2023-08-20T21:35:01;51.2;43.2;
13030;PMS7003;6582;54.644;9.760;2023-08-20T21:40:02;51.0;43.1;
13030;PMS7003;6582;54.644;9.760;2023-08-20T21:45:01;49.4;42.0;
13030;PMS7003;6582;54.644;9.760;2023-08-20T21:50:03;55.0;46.9;
13030;PMS7003;6582;54.644;9.760;2023-08-20T21:55:01;54.7;46.5;
13030;PMS7003;6582;54.644;9.760;2023-08-20T22:00:02;54.0;46.0;
13030;PMS7003;6582;54.644;9.760;2023-08-20T22:20:02;62.8;52.8;
13030;PMS7003;6582;54.644;9.760;2023-08-20T22:25:01;57.9;49.0;
13030;PMS7003;6582;54.644;9.760;2023-08-20T22:30:02;56.0;47.0;
13030;PMS7003;6582;54.644;9.760;2023-08-20T22:35:07;55.2;46.4;
13030;PMS7003;6582;54.644;9.760;2023-08-20T22:40:02;54.7;46.0;
13030;PMS7003;6582;54.644;9.760;2023-08-20T22:45:01;52.2;43.8;
13030;PMS7003;6582;54.644;9.760;2023-08-20T22:50:01;52.0;43.6;
13030;PMS7003;6582;54.644;9.760;2023-08-20T22:55:01;51.4;43.2;
13030;PMS7003;6582;54.644;9.760;2023-08-20T23:00:02;50.9;43.0;
13030;PMS7003;6582;54.644;9.760;2023-08-20T23:05:01;51.0;43.0;
13030;PMS7003;6582;54.644;9.760;2023-08-20T23:10:01;51.2;43.4;
13030;PMS7003;6582;54.644;9.760;2023-08-20T23:15:02;50.9;43.3;
13030;PMS7003;6582;54.644;9.760;2023-08-20T23:20:02;51.0;43.5;
13030;PMS7003;6582;54.644;9.760;2023-08-20T23:25:02;50.9;43.4;
13030;PMS7003;6582;54.644;9.760;2023-08-20T23:30:02;51.6;44.0;
13030;PMS7003;6582;54.644;9.760;2023-08-20T23:35:01;51.1;43.6;
13030;PMS7003;6582;54.644;9.760;2023-08-20T23:40:02;51.6;43.8;
13030;PMS7003;6582;54.644;9.760;2023-08-20T23:45:01;53.0;45.0;
13030;PMS7003;6582;54.644;9.760;2023-08-20T23:50:02;53.6;45.4;
13030;PMS7003;6582;54.644;9.760;2023-08-20T23:55:02;53.3;44.9;
